METAR AND TAF INFORMATION
METAR FOR CYZT
CYZT 211655Z 07005KT 10SM BKN005 BKN050 11/10 A2998 RMK ST7CU1 CU TR CIG HYR E SLP155
CYZT 211600Z 08003KT 10SM OVC004 11/10 A2999 RMK ST8 CIG VRB 003-005 SLP157
CYZT 211500Z 07004KT 030V110 5SM BR OVC004 11/10 A3000 RMK ST8 CIG VRB 003-005 SLP162
CYZT 211400Z 06003KT 310V080 5SM BR OVC004 11/11 A3001 RMK ST8 SLP166
CYZT 211359Z VRB02KT 5SM BR OVC003 11/11 A3001 RMK ST8 SLP166

TAF AMD CYZT 211705Z 2117/2201 07005KT P6SM BKN006 OVC100
TEMPO 2117/2119 SCT006 OVC100
FM211900 04006KT P6SM FEW012 OVC090
BECMG 2122/2124 36008KT RMK NXT FCST BY 211900Z

 AIRPORT MAP

 RUNWAY INFORMATION
Runway 07 Runway length 4000 ft Runway width 150 ft
Runway elevation 71 ft Runway displaced threshold 0 ft Runway heading 92
Runway 25 Runway length 4000 ft Runway width 150 ft
Runway elevation 33 ft Runway displaced threshold 0 ft Runway heading 272
Runway 11 Runway length 5000 ft Runway width 150 ft
Runway elevation 43 ft Runway displaced threshold 0 ft Runway heading 129
Runway 29 Runway length 5000 ft Runway width 150 ft
Runway elevation 35 ft Runway displaced threshold 0 ft Runway heading 309
Runway 16 Runway length 4000 ft Runway width 150 ft
Runway elevation 42 ft Runway displaced threshold 0 ft Runway heading 178
Runway 34 Runway length 4000 ft Runway width 150 ft
Runway elevation 71 ft Runway displaced threshold 1475 ft Runway heading 358

 AIRPORT FREQUENCIES
Type A/G Name MF HARDY Frequency 122.2 MHZ
Type CNTR Name VANCOUVER Frequency 132.2 MHZ
Type RCO Name PACIFIC RD Frequency 126.7 MHZ
Type RDO Name RDO Frequency 122.2 MHZ

 AIRPORT NEAR NAVIGATION AIDS
Type VORTAC Name Port Hardy Frequency 112000 KHZ
Type NDB Name Port Hardy Frequency 242 KHZ

-